TAF and METAR

Could not understand the following METAR

YPKU 251330Z AUTO 00000KT 9999 // NCD 25/19 Q1012 RF00.0////./

TAF for Kununurra Airport

TAF YPKU 251216Z 2514/2602 VRB05KT CAVOK FM260000 07008KT CAVOK
Report created 25. sep 14:16

between 25. sep 16:00 - 26. sep 04:00

wind 5 knots from various directions Clear sky

From 26. sep 02:00

wind 8 knots from ENE (070°) Clear sky